createdAt,value
2018-08-06T00:00:24.831Z,12.79
2018-08-06T00:01:24.736Z,12.75
2018-08-06T00:02:24.805Z,12.72
2018-08-06T00:03:24.807Z,12.71
2018-08-06T00:04:24.736Z,12.69
2018-08-06T00:05:24.811Z,12.68
2018-08-06T00:06:24.766Z,12.64
2018-08-06T00:07:24.778Z,12.61
2018-08-06T00:08:24.741Z,12.61
2018-08-06T00:09:24.770Z,12.61
2018-08-06T00:10:24.809Z,12.60
2018-08-06T00:11:24.812Z,12.62
2018-08-06T00:12:24.765Z,12.58
2018-08-06T00:13:24.771Z,12.55
2018-08-06T00:14:24.792Z,12.53
2018-08-06T00:15:24.810Z,12.47
2018-08-06T00:16:24.811Z,12.43
2018-08-06T00:17:24.812Z,12.40
2018-08-06T00:18:24.739Z,12.40
2018-08-06T00:19:24.741Z,12.37
2018-08-06T00:20:24.813Z,12.37
2018-08-06T00:21:24.813Z,12.37
2018-08-06T00:22:24.775Z,12.39
2018-08-06T00:23:24.826Z,12.36
2018-08-06T00:24:24.690Z,12.31
2018-08-06T00:25:24.803Z,12.26
2018-08-06T00:26:24.808Z,12.21
2018-08-06T00:27:24.748Z,12.18
2018-08-06T00:28:24.807Z,12.14
2018-08-06T00:29:24.724Z,12.12
2018-08-06T00:30:24.753Z,12.09
2018-08-06T00:31:24.756Z,12.06
2018-08-06T00:32:24.849Z,12.03
2018-08-06T00:33:24.827Z,11.99
2018-08-06T00:34:24.757Z,11.97
2018-08-06T00:35:24.825Z,11.98
2018-08-06T00:36:24.710Z,11.97
2018-08-06T00:37:24.760Z,11.95
2018-08-06T00:38:24.832Z,11.92
2018-08-06T00:39:24.834Z,11.91
2018-08-06T00:40:24.763Z,11.91
2018-08-06T00:41:24.801Z,11.89
2018-08-06T00:42:24.852Z,11.89
2018-08-06T00:43:24.810Z,11.91
2018-08-06T00:44:24.856Z,11.89
2018-08-06T00:45:24.894Z,11.86
2018-08-06T00:46:24.736Z,11.86
2018-08-06T00:47:24.833Z,11.86
2018-08-06T00:48:24.865Z,11.87
2018-08-06T00:49:24.742Z,11.86
2018-08-06T00:50:24.836Z,11.84
2018-08-06T00:51:24.858Z,11.83
2018-08-06T00:52:24.819Z,11.79
2018-08-06T00:53:24.871Z,11.79
2018-08-06T00:54:24.807Z,11.76
2018-08-06T00:55:24.860Z,11.73
2018-08-06T00:56:24.859Z,11.69
2018-08-06T00:57:24.817Z,11.68
2018-08-06T00:58:24.872Z,11.68
2018-08-06T00:59:24.813Z,11.68
2018-08-06T01:00:24.902Z,11.68
2018-08-06T01:01:24.799Z,11.68
2018-08-06T01:02:24.751Z,11.67
2018-08-06T01:03:24.876Z,11.69
2018-08-06T01:04:24.850Z,11.69
2018-08-06T01:05:24.816Z,11.69
2018-08-06T01:06:24.867Z,11.69
2018-08-06T01:07:24.774Z,11.65
2018-08-06T01:08:24.774Z,11.67
2018-08-06T01:09:24.885Z,11.68
2018-08-06T01:10:24.885Z,11.67
2018-08-06T01:11:24.881Z,11.64
2018-08-06T01:12:24.875Z,11.62
2018-08-06T01:13:24.851Z,11.61
2018-08-06T01:14:24.789Z,11.61
2018-08-06T01:15:24.760Z,11.58
2018-08-06T01:16:24.772Z,11.57
2018-08-06T01:17:24.798Z,11.56
2018-08-06T01:18:24.781Z,11.54
2018-08-06T01:19:24.893Z,11.53
2018-08-06T01:20:24.839Z,11.51
2018-08-06T01:21:24.819Z,11.49
2018-08-06T01:22:24.762Z,11.50
2018-08-06T01:23:24.832Z,11.49
2018-08-06T01:24:24.820Z,11.47
2018-08-06T01:25:24.837Z,11.43
2018-08-06T01:26:24.896Z,11.40
2018-08-06T01:27:24.840Z,11.40
2018-08-06T01:28:24.889Z,11.38
2018-08-06T01:29:24.847Z,11.35
2018-08-06T01:30:24.887Z,11.33
2018-08-06T01:31:24.921Z,11.32
2018-08-06T01:32:24.828Z,11.29
2018-08-06T01:33:24.845Z,11.29
2018-08-06T01:34:24.886Z,11.25
2018-08-06T01:35:24.870Z,11.22
2018-08-06T01:36:24.912Z,11.18
2018-08-06T01:37:24.852Z,11.16
2018-08-06T01:38:24.777Z,11.11
2018-08-06T01:39:24.878Z,11.07
2018-08-06T01:40:24.788Z,11.05
2018-08-06T01:41:24.739Z,11.05
2018-08-06T01:42:24.747Z,11.06
2018-08-06T01:43:24.830Z,11.05
2018-08-06T01:44:24.867Z,11.06
2018-08-06T01:45:24.879Z,11.06
2018-08-06T01:46:24.870Z,11.05
2018-08-06T01:47:24.784Z,11.03
2018-08-06T01:48:24.799Z,11.03
2018-08-06T01:49:24.872Z,11.05
2018-08-06T01:50:24.786Z,11.06
2018-08-06T01:51:24.918Z,11.06
2018-08-06T01:52:24.883Z,11.03
2018-08-06T01:53:24.921Z,11.03
2018-08-06T01:54:24.860Z,11.03
2018-08-06T01:55:24.846Z,11.02
2018-08-06T01:56:24.913Z,10.95
2018-08-06T01:57:24.801Z,10.93
2018-08-06T01:58:24.918Z,10.93
2018-08-06T01:59:24.861Z,10.91
2018-08-06T02:00:24.868Z,10.94
2018-08-06T02:01:24.910Z,10.93
2018-08-06T02:02:24.886Z,10.91
2018-08-06T02:03:24.824Z,10.91
2018-08-06T02:04:24.851Z,10.93
2018-08-06T02:05:24.917Z,10.94
2018-08-06T02:06:24.830Z,10.94
2018-08-06T02:07:24.812Z,10.94
2018-08-06T02:08:24.935Z,10.94
2018-08-06T02:09:24.812Z,10.90
2018-08-06T02:10:24.792Z,10.87
2018-08-06T02:11:24.872Z,10.87
2018-08-06T02:12:24.866Z,10.83
2018-08-06T02:13:24.855Z,10.81
2018-08-06T02:14:24.862Z,10.83
2018-08-06T02:15:24.831Z,10.84
2018-08-06T02:16:24.861Z,10.84
2018-08-06T02:17:24.933Z,10.81
2018-08-06T02:18:24.957Z,10.81
2018-08-06T02:19:24.897Z,10.81
2018-08-06T02:20:24.930Z,10.81
2018-08-06T02:21:24.857Z,10.81
2018-08-06T02:22:24.903Z,10.77
2018-08-06T02:23:24.926Z,10.71
2018-08-06T02:24:24.844Z,10.69
2018-08-06T02:25:24.905Z,10.68
2018-08-06T02:26:24.908Z,10.69
2018-08-06T02:27:24.840Z,10.65
2018-08-06T02:28:24.904Z,10.63
2018-08-06T02:29:24.842Z,10.60
2018-08-06T02:30:24.907Z,10.58
2018-08-06T02:31:24.874Z,10.58
2018-08-06T02:32:24.907Z,10.60
2018-08-06T02:33:24.930Z,10.60
2018-08-06T02:34:24.863Z,10.60
2018-08-06T02:35:24.889Z,10.61
2018-08-06T02:36:24.937Z,10.60
2018-08-06T02:37:24.859Z,10.60
2018-08-06T02:38:24.938Z,10.61
2018-08-06T02:39:24.885Z,10.58
2018-08-06T02:40:24.812Z,10.54
2018-08-06T02:41:24.854Z,10.53
2018-08-06T02:42:24.919Z,10.52
2018-08-06T02:43:24.917Z,10.50
2018-08-06T02:44:24.848Z,10.47
2018-08-06T02:45:24.937Z,10.43
2018-08-06T02:46:24.803Z,10.41
2018-08-06T02:47:24.877Z,10.36
2018-08-06T02:48:24.854Z,10.36
2018-08-06T02:49:24.854Z,10.36
2018-08-06T02:50:24.888Z,10.35
2018-08-06T02:51:24.857Z,10.35
2018-08-06T02:52:24.899Z,10.36
2018-08-06T02:53:24.906Z,10.36
2018-08-06T02:54:24.826Z,10.34
2018-08-06T02:55:24.827Z,10.31
2018-08-06T02:56:24.945Z,10.30
2018-08-06T02:57:24.928Z,10.28
2018-08-06T02:58:24.848Z,10.27
2018-08-06T02:59:24.845Z,10.27
2018-08-06T03:00:24.894Z,10.25
2018-08-06T03:01:24.955Z,10.24
2018-08-06T03:02:24.870Z,10.23
2018-08-06T03:03:24.894Z,10.21
2018-08-06T03:04:24.958Z,10.24
2018-08-06T03:05:24.931Z,10.24
2018-08-06T03:06:24.872Z,10.24
2018-08-06T03:07:24.904Z,10.24
2018-08-06T03:08:24.841Z,10.20
2018-08-06T03:09:24.933Z,10.21
2018-08-06T03:10:24.968Z,10.24
2018-08-06T03:11:24.897Z,10.21
2018-08-06T03:12:24.755Z,10.20
2018-08-06T03:13:24.812Z,10.20
2018-08-06T03:14:24.796Z,10.18
2018-08-06T03:15:24.797Z,10.20
2018-08-06T03:16:24.867Z,10.18
2018-08-06T03:17:24.784Z,10.16
2018-08-06T03:18:24.816Z,10.13
2018-08-06T03:19:24.818Z,10.11
2018-08-06T03:20:24.754Z,10.09
2018-08-06T03:21:24.865Z,10.11
2018-08-06T03:22:24.880Z,10.09
2018-08-06T03:23:24.947Z,10.08
2018-08-06T03:24:24.833Z,10.08
2018-08-06T03:25:24.916Z,10.09
2018-08-06T03:26:24.951Z,10.09
2018-08-06T03:27:24.877Z,10.08
2018-08-06T03:28:24.877Z,10.06
2018-08-06T03:29:24.881Z,10.04
2018-08-06T03:30:24.957Z,10.05
2018-08-06T03:31:24.887Z,10.06
2018-08-06T03:32:24.870Z,10.11
2018-08-06T03:33:24.856Z,10.05
2018-08-06T03:34:24.929Z,10.02
2018-08-06T03:35:24.950Z,9.98
2018-08-06T03:36:24.955Z,9.94
2018-08-06T03:37:24.994Z,9.91
2018-08-06T03:38:24.871Z,9.89
2018-08-06T03:39:24.995Z,9.87
2018-08-06T03:40:24.909Z,9.89
2018-08-06T03:41:24.954Z,9.91
2018-08-06T03:42:24.996Z,9.89
2018-08-06T03:43:24.980Z,9.89
2018-08-06T03:44:24.934Z,9.89
2018-08-06T03:45:24.922Z,9.93
2018-08-06T03:46:24.879Z,9.93
2018-08-06T03:47:24.863Z,9.90
2018-08-06T03:48:24.958Z,9.89
2018-08-06T03:49:24.892Z,9.91
2018-08-06T03:50:24.986Z,9.93
2018-08-06T03:51:24.902Z,9.94
2018-08-06T03:52:24.992Z,9.94
2018-08-06T03:53:24.993Z,9.94
2018-08-06T03:54:24.886Z,9.93
2018-08-06T03:55:24.964Z,9.93
2018-08-06T03:56:24.994Z,9.91
2018-08-06T03:57:24.891Z,9.90
2018-08-06T03:58:24.951Z,9.90
2018-08-06T03:59:24.910Z,9.89
2018-08-06T04:02:37.414Z,9.90
2018-08-06T04:03:24.912Z,9.91
2018-08-06T04:04:24.948Z,9.93
2018-08-06T04:05:24.879Z,9.94
2018-08-06T04:06:24.947Z,9.93
2018-08-06T04:07:24.878Z,9.93
2018-08-06T04:08:24.932Z,9.91
2018-08-06T04:09:24.881Z,9.91
2018-08-06T04:10:24.882Z,9.90
2018-08-06T04:11:24.952Z,9.89
2018-08-06T04:12:24.917Z,9.87
2018-08-06T04:13:24.955Z,9.91
2018-08-06T04:14:24.910Z,9.91
2018-08-06T04:15:24.909Z,9.93
2018-08-06T04:16:24.915Z,9.93
2018-08-06T04:17:24.916Z,9.94
2018-08-06T04:18:24.984Z,9.94
2018-08-06T04:19:24.868Z,9.94
2018-08-06T04:20:24.944Z,9.94
2018-08-06T04:21:24.920Z,9.94
2018-08-06T04:22:24.916Z,9.94
2018-08-06T04:23:24.938Z,9.95
2018-08-06T04:24:24.983Z,9.95
2018-08-06T04:25:24.921Z,9.95
2018-08-06T04:26:24.921Z,9.95
2018-08-06T04:27:24.995Z,9.95
2018-08-06T04:28:24.924Z,9.97
2018-08-06T04:29:24.924Z,9.98
2018-08-06T04:30:24.953Z,10.00
2018-08-06T04:31:24.993Z,10.01
2018-08-06T04:32:24.950Z,10.05
2018-08-06T04:33:25.023Z,10.05
2018-08-06T04:34:25.028Z,10.05
2018-08-06T04:35:25.017Z,10.06
2018-08-06T04:36:24.988Z,10.09
2018-08-06T04:37:24.917Z,10.13
2018-08-06T04:38:24.980Z,10.14
2018-08-06T04:39:24.980Z,10.17
2018-08-06T04:40:24.933Z,10.21
2018-08-06T04:41:24.999Z,10.18
2018-08-06T04:42:24.967Z,10.18
2018-08-06T04:43:24.970Z,10.18
2018-08-06T04:44:25.037Z,10.18
2018-08-06T04:45:25.022Z,10.21
2018-08-06T04:46:24.907Z,10.28
2018-08-06T04:47:25.002Z,10.34
2018-08-06T04:48:25.018Z,10.39
2018-08-06T04:49:24.903Z,10.46
2018-08-06T04:50:24.905Z,10.47
2018-08-06T04:51:25.043Z,10.52
2018-08-06T04:52:24.905Z,10.56
2018-08-06T04:53:24.938Z,10.58
2018-08-06T04:54:25.005Z,10.60
2018-08-06T04:55:24.980Z,10.63
2018-08-06T04:56:25.012Z,10.65
2018-08-06T04:57:24.941Z,10.68
2018-08-06T04:58:24.943Z,10.69
2018-08-06T04:59:24.980Z,10.72
2018-08-06T05:00:24.946Z,10.72
2018-08-06T05:01:25.003Z,10.74
2018-08-06T05:02:25.041Z,10.79
2018-08-06T05:03:24.971Z,10.81
2018-08-06T05:04:25.044Z,10.86
2018-08-06T05:05:25.039Z,10.93
2018-08-06T05:06:24.985Z,10.98
2018-08-06T05:07:25.054Z,11.05
2018-08-06T05:08:24.970Z,11.11
2018-08-06T05:09:24.982Z,11.16
2018-08-06T05:10:25.089Z,11.17
2018-08-06T05:11:25.000Z,11.18
2018-08-06T05:12:24.923Z,11.21
2018-08-06T05:13:25.020Z,11.22
2018-08-06T05:14:25.015Z,11.25
2018-08-06T05:15:24.926Z,11.28
2018-08-06T05:16:24.985Z,11.29
2018-08-06T05:17:24.960Z,11.35
2018-08-06T05:18:24.995Z,11.43
2018-08-06T05:19:25.145Z,11.46
2018-08-06T05:20:25.046Z,11.49
2018-08-06T05:21:25.059Z,11.54
2018-08-06T05:22:24.959Z,11.58
2018-08-06T05:23:25.030Z,11.62
2018-08-06T05:24:24.966Z,11.69
2018-08-06T05:25:25.030Z,11.73
2018-08-06T05:26:25.031Z,11.79
2018-08-06T05:27:24.983Z,11.86
2018-08-06T05:28:25.038Z,11.92
2018-08-06T05:29:24.970Z,11.98
2018-08-06T05:30:25.038Z,12.05
2018-08-06T05:31:24.968Z,12.08
2018-08-06T05:32:24.987Z,12.16
2018-08-06T05:33:25.031Z,12.22
2018-08-06T05:34:24.927Z,12.29
2018-08-06T05:35:24.989Z,12.35
2018-08-06T05:36:24.965Z,12.43
2018-08-06T05:37:25.036Z,12.48
2018-08-06T05:38:25.035Z,12.55
2018-08-06T05:39:25.038Z,12.62
2018-08-06T05:40:24.990Z,12.68
2018-08-06T05:41:25.037Z,12.73
2018-08-06T05:42:25.059Z,12.79
2018-08-06T05:43:24.979Z,12.87
2018-08-06T05:44:24.978Z,12.92
2018-08-06T05:45:24.941Z,13.00
2018-08-06T05:46:25.042Z,13.05
2018-08-06T05:47:25.001Z,13.13
2018-08-06T05:48:25.125Z,13.23
2018-08-06T05:49:24.968Z,13.31
2018-08-06T05:50:25.045Z,13.39
2018-08-06T05:51:25.009Z,13.47
2018-08-06T05:52:25.084Z,13.59
2018-08-06T05:53:25.074Z,13.72
2018-08-06T05:54:25.024Z,13.86
2018-08-06T05:55:25.018Z,14.00
2018-08-06T05:56:25.043Z,14.28
2018-08-06T05:57:24.975Z,14.55
2018-08-06T05:58:25.014Z,14.89
2018-08-06T05:59:25.027Z,15.24
2018-08-06T06:00:25.081Z,15.51
2018-08-06T06:01:25.082Z,15.79
2018-08-06T06:02:25.023Z,15.95
2018-08-06T06:03:25.104Z,16.20
2018-08-06T06:04:25.019Z,16.36
2018-08-06T06:05:24.975Z,16.48
2018-08-06T06:06:25.053Z,16.62
2018-08-06T06:07:24.994Z,16.91
2018-08-06T06:08:24.955Z,17.18
2018-08-06T06:09:25.016Z,17.39
2018-08-06T06:10:25.021Z,17.60
2018-08-06T06:11:24.964Z,17.95
2018-08-06T06:12:24.968Z,18.21
2018-08-06T06:13:24.933Z,18.31
2018-08-06T06:14:24.930Z,18.25
2018-08-06T06:15:25.058Z,18.28
2018-08-06T06:16:24.994Z,18.35
2018-08-06T06:17:24.953Z,18.52
2018-08-06T06:18:24.951Z,18.61
2018-08-06T06:19:24.936Z,18.69
2018-08-06T06:20:24.934Z,18.90
2018-08-06T06:21:25.001Z,19.10
2018-08-06T06:22:25.071Z,19.36
2018-08-06T06:23:25.067Z,19.50
2018-08-06T06:24:25.000Z,19.64
2018-08-06T06:25:25.014Z,19.76
2018-08-06T06:26:25.112Z,19.91
2018-08-06T06:27:25.072Z,19.98
2018-08-06T06:28:25.011Z,19.98
2018-08-06T06:29:25.036Z,19.98
2018-08-06T06:30:25.013Z,19.92
2018-08-06T06:31:25.008Z,19.88
2018-08-06T06:32:25.095Z,19.85
2018-08-06T06:33:25.111Z,19.95
2018-08-06T06:34:25.048Z,20.06
2018-08-06T06:35:25.048Z,20.23
2018-08-06T06:36:24.978Z,20.47
2018-08-06T06:37:25.078Z,20.66
2018-08-06T06:38:25.115Z,20.65
2018-08-06T06:39:25.019Z,20.60
2018-08-06T06:40:25.095Z,20.58
2018-08-06T06:41:25.061Z,20.54
2018-08-06T06:42:25.103Z,20.60
2018-08-06T06:43:25.113Z,20.57
2018-08-06T06:44:25.121Z,20.57
2018-08-06T06:45:25.054Z,20.65
2018-08-06T06:46:25.056Z,20.79
2018-08-06T06:47:25.086Z,20.86
2018-08-06T06:48:25.121Z,20.99
2018-08-06T06:49:25.055Z,20.98
2018-08-06T06:50:25.054Z,20.70
2018-08-06T06:51:25.051Z,20.65
2018-08-06T06:52:24.974Z,20.65
2018-08-06T06:53:24.999Z,20.84
2018-08-06T06:54:25.108Z,20.99
2018-08-06T06:55:25.018Z,21.18
2018-08-06T06:56:25.022Z,21.39
2018-08-06T06:57:25.079Z,21.64
2018-08-06T06:58:24.956Z,21.58
2018-08-06T06:59:25.085Z,21.60
2018-08-06T07:00:25.078Z,21.60
2018-08-06T07:01:24.958Z,21.72
2018-08-06T07:02:24.997Z,21.97
2018-08-06T07:03:25.114Z,21.97
2018-08-06T07:04:25.097Z,22.13
2018-08-06T07:05:25.118Z,22.25
2018-08-06T07:06:25.165Z,22.36
2018-08-06T07:07:25.022Z,22.46
2018-08-06T07:08:25.135Z,22.65
2018-08-06T07:09:25.133Z,22.67
2018-08-06T07:10:25.143Z,22.67
2018-08-06T07:11:25.074Z,22.60
2018-08-06T07:12:25.081Z,22.56
2018-08-06T07:13:25.100Z,22.46
2018-08-06T07:14:25.001Z,22.36
2018-08-06T07:15:25.084Z,22.43
2018-08-06T07:16:25.088Z,22.65
2018-08-06T07:17:25.119Z,22.68
2018-08-06T07:18:25.050Z,22.68
2018-08-06T07:19:25.084Z,22.86
2018-08-06T07:20:25.148Z,22.97
2018-08-06T07:21:25.015Z,22.97
2018-08-06T07:22:25.060Z,22.97
2018-08-06T07:23:25.043Z,23.00
2018-08-06T07:24:24.980Z,22.86
2018-08-06T07:25:25.063Z,22.76
2018-08-06T07:26:25.101Z,22.60
2018-08-06T07:27:25.072Z,22.60
2018-08-06T07:28:25.001Z,22.49
2018-08-06T07:29:25.106Z,22.49
2018-08-06T07:30:25.045Z,22.65
2018-08-06T07:31:25.067Z,22.93
2018-08-06T07:32:25.021Z,23.20
2018-08-06T07:33:24.996Z,23.23
2018-08-06T07:34:25.105Z,23.33
2018-08-06T07:35:24.989Z,23.34
2018-08-06T07:36:25.107Z,23.54
2018-08-06T07:37:25.113Z,23.74
2018-08-06T07:38:24.992Z,23.76
2018-08-06T07:39:25.068Z,23.80
2018-08-06T07:40:25.029Z,23.93
2018-08-06T07:41:25.057Z,23.97
2018-08-06T07:42:25.142Z,23.89
2018-08-06T07:43:25.151Z,23.97
2018-08-06T07:44:25.168Z,23.98
2018-08-06T07:45:25.085Z,23.89
2018-08-06T07:46:25.152Z,23.58
2018-08-06T07:47:25.131Z,23.61
2018-08-06T07:48:25.099Z,23.72
2018-08-06T07:49:25.066Z,23.96
2018-08-06T07:50:25.086Z,24.12
2018-08-06T07:51:25.031Z,24.22
2018-08-06T07:52:25.097Z,24.31
2018-08-06T07:53:25.036Z,24.09
2018-08-06T07:54:25.165Z,24.07
2018-08-06T07:55:25.153Z,23.96
2018-08-06T07:56:25.039Z,23.89
2018-08-06T07:57:25.055Z,24.14
2018-08-06T07:58:25.036Z,24.09
2018-08-06T07:59:25.037Z,23.90
2018-08-06T08:00:25.113Z,23.83
2018-08-06T08:01:25.096Z,23.96
2018-08-06T08:02:25.110Z,24.04
2018-08-06T08:03:25.073Z,24.08
2018-08-06T08:04:25.071Z,23.86
2018-08-06T08:05:25.138Z,23.91
2018-08-06T08:06:25.127Z,24.12
2018-08-06T08:07:25.069Z,24.38
2018-08-06T08:09:25.181Z,24.71
2018-08-06T08:10:25.140Z,24.83
2018-08-06T08:11:25.078Z,24.94
2018-08-06T08:12:25.081Z,25.05
2018-08-06T08:13:25.078Z,25.09
2018-08-06T08:14:25.078Z,25.15
2018-08-06T08:15:25.083Z,25.09
2018-08-06T08:16:25.079Z,24.79
2018-08-06T08:17:25.147Z,24.83
2018-08-06T08:18:25.149Z,24.94
2018-08-06T08:19:25.106Z,25.12
2018-08-06T08:20:25.225Z,25.33
2018-08-06T08:21:25.177Z,25.49
2018-08-06T08:22:25.083Z,25.52
2018-08-06T08:23:25.080Z,25.71
2018-08-06T08:24:25.071Z,25.97
2018-08-06T08:25:25.145Z,26.22
2018-08-06T08:26:25.041Z,26.45
2018-08-06T08:27:25.139Z,26.67
2018-08-06T08:28:25.058Z,26.74
2018-08-06T08:29:25.055Z,26.88
2018-08-06T08:30:25.047Z,26.99
2018-08-06T08:31:25.092Z,26.92
2018-08-06T08:32:25.149Z,26.79
2018-08-06T08:33:25.163Z,26.75
2018-08-06T08:34:25.103Z,26.49
2018-08-06T08:35:25.162Z,26.56
2018-08-06T08:36:25.091Z,26.64
2018-08-06T08:37:25.160Z,26.82
2018-08-06T08:38:25.096Z,26.85
2018-08-06T08:39:25.162Z,26.90
2018-08-06T08:40:25.163Z,26.86
2018-08-06T08:41:25.131Z,26.96
2018-08-06T08:42:25.170Z,27.19
2018-08-06T08:43:25.085Z,27.34
2018-08-06T08:44:25.083Z,27.26
2018-08-06T08:45:25.133Z,27.22
2018-08-06T08:46:25.178Z,27.34
2018-08-06T08:47:25.165Z,27.52
2018-08-06T08:48:25.198Z,27.80
2018-08-06T08:49:25.168Z,27.63
2018-08-06T08:50:25.095Z,27.74
2018-08-06T08:51:25.070Z,27.89
2018-08-06T08:52:25.198Z,27.98
2018-08-06T08:53:25.109Z,27.92
2018-08-06T08:54:25.174Z,27.80
2018-08-06T08:55:25.113Z,27.81
2018-08-06T08:56:25.110Z,27.75
2018-08-06T08:57:25.174Z,27.88
2018-08-06T08:58:25.110Z,27.99
2018-08-06T08:59:25.108Z,28.06
2018-08-06T09:00:25.115Z,28.15
2018-08-06T09:01:25.179Z,28.29
2018-08-06T09:02:25.117Z,28.32
2018-08-06T09:03:25.182Z,28.46
2018-08-06T09:04:25.146Z,28.47
2018-08-06T09:05:25.182Z,28.58
2018-08-06T09:06:25.119Z,28.69
2018-08-06T09:07:25.223Z,28.72
2018-08-06T09:08:25.185Z,28.79
2018-08-06T09:09:25.138Z,28.82
2018-08-06T09:10:25.189Z,28.60
2018-08-06T09:11:25.126Z,28.53
2018-08-06T09:12:25.087Z,28.14
2018-08-06T09:13:25.210Z,28.03
2018-08-06T09:14:25.096Z,28.04
2018-08-06T09:15:25.261Z,27.98
2018-08-06T09:16:25.112Z,27.75
2018-08-06T09:17:25.159Z,27.95
2018-08-06T09:18:25.218Z,28.21
2018-08-06T09:19:25.237Z,28.35
2018-08-06T09:20:25.198Z,28.44
2018-08-06T09:21:25.196Z,28.29
2018-08-06T09:22:25.147Z,28.35
2018-08-06T09:23:25.118Z,28.31
2018-08-06T09:24:25.195Z,28.14
2018-08-06T09:25:25.153Z,27.98
2018-08-06T09:26:25.173Z,27.66
2018-08-06T09:27:25.173Z,27.48
2018-08-06T09:28:25.225Z,27.70
2018-08-06T09:29:25.279Z,27.50
2018-08-06T09:30:25.189Z,27.65
2018-08-06T09:31:25.172Z,27.86
2018-08-06T09:32:25.183Z,27.85
2018-08-06T09:33:25.102Z,27.82
2018-08-06T09:34:25.172Z,27.82
2018-08-06T09:35:25.179Z,27.88
2018-08-06T09:36:25.141Z,27.84
2018-08-06T09:37:25.372Z,27.99
2018-08-06T09:38:25.173Z,28.21
2018-08-06T09:39:25.240Z,28.26
2018-08-06T09:40:25.236Z,28.25
2018-08-06T09:41:25.150Z,28.25
2018-08-06T09:42:25.205Z,28.10
2018-08-06T09:43:25.170Z,28.33
2018-08-06T09:44:25.201Z,28.44
2018-08-06T09:45:25.167Z,28.28
2018-08-06T09:46:25.131Z,28.39
2018-08-06T09:47:25.233Z,28.42
2018-08-06T09:48:25.182Z,28.29
2018-08-06T09:49:25.242Z,28.37
2018-08-06T09:50:25.187Z,28.50
2018-08-06T09:51:25.245Z,28.72
2018-08-06T09:52:25.155Z,28.97
2018-08-06T09:53:25.214Z,29.05
2018-08-06T09:54:25.238Z,29.13
2018-08-06T09:55:25.211Z,29.25
2018-08-06T09:56:25.220Z,29.21
2018-08-06T09:57:25.149Z,28.79
2018-08-06T09:58:25.216Z,28.82
2018-08-06T09:59:25.152Z,29.12
2018-08-06T10:00:25.173Z,29.34
2018-08-06T10:01:25.160Z,29.47
2018-08-06T10:02:25.243Z,29.40
2018-08-06T10:03:25.228Z,29.18
2018-08-06T10:04:25.154Z,29.24
2018-08-06T10:05:25.223Z,29.43
2018-08-06T10:06:25.395Z,29.57
2018-08-06T10:07:25.219Z,29.72
2018-08-06T10:08:25.226Z,29.81
2018-08-06T10:09:25.155Z,29.86
2018-08-06T10:10:25.164Z,29.95
2018-08-06T10:11:25.231Z,29.88
2018-08-06T10:12:25.171Z,29.92
2018-08-06T10:13:25.155Z,30.20
2018-08-06T10:14:25.220Z,30.35
2018-08-06T10:15:25.149Z,30.02
2018-08-06T10:16:25.257Z,29.94
2018-08-06T10:17:25.206Z,29.97
2018-08-06T10:18:25.255Z,30.08
2018-08-06T10:19:25.241Z,30.03
2018-08-06T10:20:25.273Z,29.75
2018-08-06T10:21:25.254Z,29.76
2018-08-06T10:22:25.158Z,29.97
2018-08-06T10:23:25.237Z,29.76
2018-08-06T10:24:25.242Z,29.87
2018-08-06T10:25:25.212Z,30.03
2018-08-06T10:26:25.162Z,29.88
2018-08-06T10:27:25.204Z,29.62
2018-08-06T10:28:25.182Z,29.70
2018-08-06T10:29:25.215Z,29.58
2018-08-06T10:30:25.212Z,29.52
2018-08-06T10:31:25.263Z,29.48
2018-08-06T10:32:25.200Z,29.44
2018-08-06T10:33:25.119Z,29.64
2018-08-06T10:34:25.138Z,29.86
2018-08-06T10:35:25.222Z,30.12
2018-08-06T10:36:25.183Z,30.28
2018-08-06T10:37:25.226Z,30.48
2018-08-06T10:38:25.143Z,30.80
2018-08-06T10:39:25.245Z,31.15
2018-08-06T10:40:25.203Z,31.34
2018-08-06T10:41:25.236Z,31.35
2018-08-06T10:42:25.186Z,31.42
2018-08-06T10:43:25.176Z,31.46
2018-08-06T10:44:25.289Z,31.38
2018-08-06T10:45:25.274Z,31.22
2018-08-06T10:46:25.234Z,30.83
2018-08-06T10:47:25.281Z,30.80
2018-08-06T10:48:25.367Z,31.00
2018-08-06T10:49:25.215Z,31.00
2018-08-06T10:50:25.254Z,31.02
2018-08-06T10:51:25.281Z,31.13
2018-08-06T10:52:25.284Z,31.24
2018-08-06T10:53:25.221Z,31.46
2018-08-06T10:54:25.295Z,31.22
2018-08-06T10:55:25.328Z,31.09
2018-08-06T10:56:25.264Z,31.16
2018-08-06T10:57:25.286Z,31.31
2018-08-06T10:58:25.168Z,31.19
2018-08-06T10:59:25.222Z,31.15
2018-08-06T11:00:25.190Z,31.20
2018-08-06T11:01:25.292Z,31.27
2018-08-06T11:02:25.206Z,31.35
2018-08-06T11:03:25.319Z,31.19
2018-08-06T11:04:25.194Z,30.94
2018-08-06T11:05:25.231Z,30.80
2018-08-06T11:06:25.266Z,31.06
2018-08-06T11:07:25.266Z,31.24
2018-08-06T11:08:25.191Z,31.37
2018-08-06T11:09:25.286Z,31.20
2018-08-06T11:10:25.271Z,31.35
2018-08-06T11:11:25.246Z,31.12
2018-08-06T11:12:25.251Z,31.02
2018-08-06T11:13:25.250Z,31.00
2018-08-06T11:14:25.330Z,30.86
2018-08-06T11:15:25.300Z,30.66
2018-08-06T11:16:25.313Z,30.69
2018-08-06T11:17:25.305Z,30.62
2018-08-06T11:18:25.183Z,30.93
2018-08-06T11:19:25.209Z,31.34
2018-08-06T11:20:25.285Z,31.24
2018-08-06T11:21:25.319Z,31.22
2018-08-06T11:22:25.309Z,31.41
2018-08-06T11:23:25.308Z,31.51
2018-08-06T11:24:25.243Z,31.37
2018-08-06T11:25:25.201Z,31.31
2018-08-06T11:26:25.319Z,31.33
2018-08-06T11:27:25.308Z,31.48
2018-08-06T11:28:25.343Z,31.56
2018-08-06T11:29:25.309Z,31.68
2018-08-06T11:30:25.256Z,31.85
2018-08-06T11:31:25.312Z,31.91
2018-08-06T11:32:25.188Z,31.78
2018-08-06T11:33:25.320Z,31.85
2018-08-06T11:34:25.261Z,31.91
2018-08-06T11:35:25.254Z,31.82
2018-08-06T11:36:25.225Z,32.03
2018-08-06T11:37:25.311Z,32.18
2018-08-06T11:38:25.288Z,32.36
2018-08-06T11:39:25.288Z,32.33
2018-08-06T11:40:25.270Z,32.36
2018-08-06T11:41:25.193Z,32.30
2018-08-06T11:42:25.253Z,32.04
2018-08-06T11:43:25.295Z,32.22
2018-08-06T11:44:25.228Z,32.19
2018-08-06T11:45:25.229Z,32.20
2018-08-06T11:46:25.229Z,31.96
2018-08-06T11:47:25.296Z,32.04
2018-08-06T11:48:25.295Z,31.86
2018-08-06T11:49:25.237Z,31.70
2018-08-06T11:50:25.298Z,31.68
2018-08-06T11:51:25.190Z,31.89
2018-08-06T11:52:25.251Z,31.75
2018-08-06T11:53:25.235Z,31.70
2018-08-06T11:54:25.300Z,31.96
2018-08-06T11:55:25.300Z,31.75
2018-08-06T11:56:25.331Z,31.93
2018-08-06T11:57:25.238Z,32.03
2018-08-06T11:58:25.301Z,32.12
2018-08-06T11:59:25.306Z,32.43
2018-08-06T12:00:25.235Z,32.44
2018-08-06T12:01:25.239Z,32.44
2018-08-06T12:02:25.240Z,32.58
2018-08-06T12:03:25.311Z,32.70
2018-08-06T12:04:25.307Z,32.62
2018-08-06T12:05:25.310Z,32.51
2018-08-06T12:06:25.304Z,32.76
2018-08-06T12:07:25.244Z,32.88
2018-08-06T12:08:25.358Z,32.27
2018-08-06T12:09:25.243Z,32.19
2018-08-06T12:10:25.316Z,32.08
2018-08-06T12:11:25.310Z,32.27
2018-08-06T12:12:25.245Z,32.14
2018-08-06T12:13:25.295Z,32.08
2018-08-06T12:14:25.300Z,32.20
2018-08-06T12:15:25.238Z,32.16
2018-08-06T12:16:25.221Z,32.25
2018-08-06T12:17:25.341Z,32.43
2018-08-06T12:18:25.333Z,32.22
2018-08-06T12:19:25.238Z,32.20
2018-08-06T12:20:25.427Z,31.85
2018-08-06T12:21:25.224Z,31.75
2018-08-06T12:22:25.337Z,31.71
2018-08-06T12:23:25.259Z,31.68
2018-08-06T12:24:25.362Z,31.70
2018-08-06T12:25:25.287Z,31.86
2018-08-06T12:26:25.339Z,32.16
2018-08-06T12:27:25.360Z,32.41
2018-08-06T12:28:25.236Z,32.29
2018-08-06T12:29:25.282Z,32.32
2018-08-06T12:30:25.304Z,32.33
2018-08-06T12:31:25.382Z,32.08
2018-08-06T12:32:25.325Z,32.05
2018-08-06T12:33:25.256Z,32.29
2018-08-06T12:34:25.326Z,32.48
2018-08-06T12:35:25.303Z,32.59
2018-08-06T12:36:25.260Z,32.67
2018-08-06T12:37:25.289Z,32.52
2018-08-06T12:38:25.319Z,32.26
2018-08-06T12:39:25.319Z,32.30
2018-08-06T12:40:25.220Z,32.26
2018-08-06T12:41:25.308Z,32.23
2018-08-06T12:42:25.264Z,32.48
2018-08-06T12:43:25.325Z,32.74
2018-08-06T12:44:25.255Z,32.91
2018-08-06T12:45:25.273Z,32.70
2018-08-06T12:46:25.286Z,32.81
2018-08-06T12:47:25.240Z,32.82
2018-08-06T12:48:25.226Z,32.63
2018-08-06T12:49:25.323Z,32.62
2018-08-06T12:50:25.271Z,32.63
2018-08-06T12:51:25.211Z,32.77
2018-08-06T12:52:25.345Z,32.89
2018-08-06T12:53:25.382Z,33.03
2018-08-06T12:54:25.373Z,33.02
2018-08-06T12:55:25.333Z,33.28
2018-08-06T12:56:25.305Z,33.43
2018-08-06T12:57:25.342Z,33.51